Terminal Aerodrome Forecast
Issued by NWS

Home | Current Version | Previous Version | Text Only | Print | Product List | Glossary On
Versions: 1 2 3 4 5 6 7 8 9 10 11 12
000
FTUS42 KTAE 261732
TAFABY
TAF
KABY 261732Z 2618/2718 24005KT P6SM SCT060 SCT250
     FM270100 00000KT P6SM SCT250
     FM271500 12007KT P6SM SCT250=

USA.gov is the U.S. government's official web portal to all federal, state and local government web resources and services.